Time;durP1;ratioP1;P1;durP2;ratioP2;P2;SDS_P1;SDS_P2;PMS_P1;PMS_P2;Temp;Humidity;BMP_temperature;BMP_pressure;BME280_temperature;BME280_humidity;BME280_pressure;Samples;Min_cycle;Max_cycle;Signal;HPM_P1;HPM_P2
2020/12/10 00:01:33;;;;;;;45.00;25.10;;;4.50;99.90;;;;;;4987025;28;20496;-48
2020/12/10 00:04:01;;;;;;;45.17;25.40;;;4.50;99.90;;;;;;4988190;28;20319;-48
2020/12/10 00:06:28;;;;;;;43.57;23.30;;;4.40;99.90;;;;;;4988980;28;20863;-48
2020/12/10 00:08:56;;;;;;;42.10;23.47;;;4.50;99.90;;;;;;4991038;28;20517;-48
2020/12/10 00:11:23;;;;;;;49.60;26.37;;;4.60;99.90;;;;;;4984540;28;20480;-48
2020/12/10 00:13:52;;;;;;;41.40;22.03;;;4.60;99.90;;;;;;4984684;28;20488;-48
2020/12/10 00:16:19;;;;;;;48.17;26.37;;;4.80;99.90;;;;;;4986016;28;20539;-48
2020/12/10 00:18:47;;;;;;;47.50;25.23;;;4.60;99.90;;;;;;4984874;28;20480;-47
2020/12/10 00:21:20;;;;;;;45.00;24.83;;;4.50;99.90;;;;;;4984731;28;21081;-48
2020/12/10 00:23:48;;;;;;;39.13;22.47;;;4.50;99.90;;;;;;4986129;28;20567;-48
2020/12/10 00:26:19;;;;;;;45.13;25.20;;;4.50;99.90;;;;;;4988815;28;20886;-47
2020/12/10 00:28:46;;;;;;;42.47;24.53;;;4.80;99.90;;;;;;4989319;28;20473;-48
2020/12/10 00:31:15;;;;;;;46.63;25.20;;;4.70;99.90;;;;;;4988295;28;20531;-48
2020/12/10 00:33:42;;;;;;;44.33;25.20;;;4.60;99.90;;;;;;4988538;28;20949;-48
2020/12/10 00:36:13;;;;;;;41.67;23.20;;;4.60;99.90;;;;;;4989130;28;20999;-49
2020/12/10 00:38:41;;;;;;;41.43;25.47;;;4.50;99.90;;;;;;4988148;28;20600;-48
2020/12/10 00:41:09;;;;;;;42.10;25.43;;;4.50;99.90;;;;;;4988503;28;20240;-48
2020/12/10 00:43:36;;;;;;;40.47;22.87;;;4.50;99.90;;;;;;4988499;28;20894;-48
2020/12/10 00:46:04;;;;;;;46.73;26.57;;;4.60;99.90;;;;;;4989063;28;20551;-48
2020/12/10 00:48:33;;;;;;;44.87;25.93;;;4.50;99.90;;;;;;4987057;28;20477;-48
2020/12/10 00:51:02;;;;;;;41.63;25.70;;;4.50;99.90;;;;;;4986660;28;20504;-49
2020/12/10 00:53:31;;;;;;;42.53;25.83;;;4.40;99.90;;;;;;4987818;28;20567;-48
2020/12/10 00:55:59;;;;;;;44.83;27.03;;;4.40;99.90;;;;;;4988925;28;20481;-48
2020/12/10 00:58:27;;;;;;;42.67;24.77;;;4.40;99.90;;;;;;4988785;28;20507;-48
2020/12/10 01:00:55;;;;;;;39.03;24.33;;;4.40;99.90;;;;;;4987695;28;21049;-48
2020/12/10 01:03:22;;;;;;;42.33;25.50;;;4.50;99.90;;;;;;4987385;28;20492;-48
2020/12/10 01:05:51;;;;;;;40.07;23.97;;;4.40;99.90;;;;;;4988706;28;20495;-48
2020/12/10 01:08:18;;;;;;;40.93;23.30;;;4.50;99.90;;;;;;4987726;28;21132;-48
2020/12/10 01:10:45;;;;;;;44.77;26.33;;;4.70;99.90;;;;;;4986711;28;20557;-48
2020/12/10 01:13:13;;;;;;;40.37;23.17;;;4.60;99.90;;;;;;4988066;28;20720;-48
2020/12/10 01:15:40;;;;;;;42.23;24.97;;;4.50;99.90;;;;;;4988379;28;20538;-48
2020/12/10 01:18:08;;;;;;;41.00;25.40;;;4.50;99.90;;;;;;4988754;28;20849;-48
2020/12/10 01:20:35;;;;;;;40.97;24.13;;;4.50;99.90;;;;;;4987345;28;20534;-48
2020/12/10 01:23:03;;;;;;;42.97;24.90;;;4.50;99.90;;;;;;4987909;28;20543;-48
2020/12/10 01:25:30;;;;;;;40.47;25.70;;;4.50;99.90;;;;;;4988299;28;20483;-48
2020/12/10 01:27:58;;;;;;;45.17;25.13;;;4.40;99.90;;;;;;4988845;28;20548;-48
2020/12/10 01:30:26;;;;;;;40.53;25.53;;;4.50;99.90;;;;;;4988037;28;20990;-48
2020/12/10 01:32:53;;;;;;;42.33;25.03;;;4.50;99.90;;;;;;4991664;28;20495;-48
2020/12/10 01:35:21;;;;;;;43.33;25.60;;;4.40;99.90;;;;;;4992090;28;21120;-48
2020/12/10 01:37:48;;;;;;;38.20;23.97;;;4.40;99.90;;;;;;4988573;28;20483;-48
2020/12/10 01:40:16;;;;;;;43.67;25.90;;;4.40;99.90;;;;;;4991605;28;20480;-49
2020/12/10 01:42:44;;;;;;;42.30;25.60;;;4.40;99.90;;;;;;4991378;28;20679;-48
2020/12/10 01:45:11;;;;;;;43.27;24.70;;;4.40;99.90;;;;;;4991809;28;21336;-48
2020/12/10 01:47:39;;;;;;;39.80;24.80;;;4.40;99.90;;;;;;4991693;28;20511;-48
2020/12/10 01:50:08;;;;;;;43.60;25.10;;;4.40;99.90;;;;;;4991579;28;20496;-49
2020/12/10 01:52:35;;;;;;;40.03;24.77;;;4.40;99.90;;;;;;4990665;28;20855;-48
2020/12/10 01:55:04;;;;;;;42.97;24.40;;;4.40;99.90;;;;;;4991251;28;20519;-49
2020/12/10 01:57:32;;;;;;;41.37;25.57;;;4.40;99.90;;;;;;4991692;28;20542;-49
2020/12/10 02:00:04;;;;;;;41.43;24.23;;;4.40;99.90;;;;;;4991169;28;20472;-48
2020/12/10 02:02:39;;;;;;;39.10;24.80;;;4.50;99.90;;;;;;4990550;28;20476;-48
2020/12/10 02:05:06;;;;;;;38.80;21.67;;;4.50;99.90;;;;;;4989605;28;20586;-49
2020/12/10 02:07:33;;;;;;;43.50;27.07;;;4.60;99.90;;;;;;4991144;28;20550;-48
2020/12/10 02:10:01;;;;;;;41.60;25.10;;;4.70;99.90;;;;;;4990988;28;20670;-48
2020/12/10 02:12:28;;;;;;;41.53;24.83;;;4.60;99.90;;;;;;4990985;28;20523;-47
2020/12/10 02:14:56;;;;;;;41.40;25.80;;;4.50;99.90;;;;;;4990269;28;20481;-48
2020/12/10 02:17:24;;;;;;;37.17;22.17;;;4.40;99.90;;;;;;4991639;28;20705;-48
2020/12/10 02:19:51;;;;;;;44.70;26.00;;;4.70;99.90;;;;;;4991125;28;20760;-48
2020/12/10 02:22:18;;;;;;;43.57;26.20;;;4.60;99.90;;;;;;4990583;28;20566;-49
2020/12/10 02:24:46;;;;;;;43.70;25.73;;;4.50;99.90;;;;;;4990533;28;20244;-48
2020/12/10 02:27:14;;;;;;;43.73;25.80;;;4.40;99.90;;;;;;4991013;28;20988;-48
2020/12/10 02:29:41;;;;;;;40.67;24.97;;;4.40;99.90;;;;;;4990136;28;20848;-48
2020/12/10 02:32:09;;;;;;;42.50;26.07;;;4.40;99.90;;;;;;4990593;28;20543;-48
2020/12/10 02:34:36;;;;;;;43.00;25.83;;;4.40;99.90;;;;;;4990081;28;20978;-47
2020/12/10 02:37:03;;;;;;;43.23;24.97;;;4.40;99.90;;;;;;4990755;28;20905;-48
2020/12/10 02:39:31;;;;;;;45.03;25.53;;;4.30;99.90;;;;;;4990331;28;20851;-48
2020/12/10 02:42:00;;;;;;;44.47;25.53;;;4.30;99.90;;;;;;4989259;28;20562;-48
2020/12/10 02:44:27;;;;;;;44.00;26.17;;;4.30;99.90;;;;;;4989755;28;20472;-48
2020/12/10 02:46:54;;;;;;;40.73;24.77;;;4.40;99.90;;;;;;4990645;28;21004;-48
2020/12/10 02:49:22;;;;;;;42.90;25.20;;;4.40;99.90;;;;;;4990423;28;20506;-48
2020/12/10 02:51:49;;;;;;;41.73;23.27;;;4.40;99.90;;;;;;4990224;28;20484;-47
2020/12/10 02:54:17;;;;;;;42.27;24.57;;;4.40;99.90;;;;;;4990503;28;20491;-47
2020/12/10 02:56:44;;;;;;;44.17;25.53;;;4.50;99.90;;;;;;4990408;28;20488;-48
2020/12/10 02:59:12;;;;;;;39.87;24.57;;;4.50;99.90;;;;;;4990061;28;20949;-48
2020/12/10 03:01:39;;;;;;;40.57;24.90;;;4.40;99.90;;;;;;4988141;28;20508;-48
2020/12/10 03:04:07;;;;;;;39.43;23.40;;;4.50;99.90;;;;;;4988439;28;20503;-48
2020/12/10 03:06:34;;;;;;;38.13;21.50;;;4.40;99.90;;;;;;4989288;28;20578;-48
2020/12/10 03:09:03;;;;;;;44.27;23.33;;;4.60;99.90;;;;;;4990274;28;20763;-48
2020/12/10 03:11:30;;;;;;;44.87;24.63;;;5.00;99.90;;;;;;4989646;28;20489;-48
2020/12/10 03:13:58;;;;;;;48.83;26.90;;;5.10;99.90;;;;;;4990073;28;20853;-49
2020/12/10 03:16:26;;;;;;;44.87;26.03;;;4.80;99.90;;;;;;4990125;28;20722;-47
2020/12/10 03:18:54;;;;;;;41.63;25.27;;;4.60;99.90;;;;;;4990136;28;20495;-49
2020/12/10 03:21:22;;;;;;;41.07;25.37;;;4.60;99.90;;;;;;4989524;28;20485;-48
2020/12/10 03:23:49;;;;;;;44.07;26.27;;;4.50;99.90;;;;;;4989755;28;20517;-48
2020/12/10 03:26:16;;;;;;;47.30;26.03;;;4.50;99.90;;;;;;4990135;28;20487;-48
2020/12/10 03:28:44;;;;;;;43.43;26.27;;;4.50;99.90;;;;;;4989857;28;20519;-49
2020/12/10 03:31:11;;;;;;;45.93;25.40;;;4.40;99.90;;;;;;4988181;28;20545;-49
2020/12/10 03:33:39;;;;;;;46.97;26.37;;;4.60;99.90;;;;;;4989320;28;20556;-48
2020/12/10 03:36:07;;;;;;;48.40;27.67;;;4.50;99.90;;;;;;4989991;28;20527;-48
2020/12/10 03:38:34;;;;;;;45.20;25.70;;;4.60;99.90;;;;;;4989335;28;20576;-48
2020/12/10 03:41:05;;;;;;;53.57;28.57;;;4.60;99.90;;;;;;4988880;28;20487;-48
2020/12/10 03:43:32;;;;;;;42.67;24.80;;;4.50;99.90;;;;;;4988641;28;20881;-48
2020/12/10 03:46:00;;;;;;;46.03;26.57;;;4.50;99.90;;;;;;4989839;28;20477;-47
2020/12/10 03:48:27;;;;;;;47.77;26.97;;;4.50;99.90;;;;;;4989527;28;20547;-48
2020/12/10 03:50:55;;;;;;;46.13;26.13;;;4.50;99.90;;;;;;4988617;28;20481;-48
2020/12/10 03:53:23;;;;;;;48.07;27.10;;;4.40;99.90;;;;;;4988993;28;20512;-48
2020/12/10 03:55:50;;;;;;;45.53;26.27;;;4.40;99.90;;;;;;4989836;28;20488;-47
2020/12/10 03:58:18;;;;;;;45.47;25.63;;;4.30;99.90;;;;;;4989570;28;20546;-48
2020/12/10 04:00:45;;;;;;;43.83;23.90;;;4.30;99.90;;;;;;4986776;28;20501;-47
2020/12/10 04:03:13;;;;;;;52.60;28.53;;;4.40;99.90;;;;;;4987265;28;20494;-48
2020/12/10 04:05:40;;;;;;;48.17;26.93;;;4.40;99.90;;;;;;4988983;28;20511;-48
2020/12/10 04:08:08;;;;;;;44.63;24.17;;;4.40;99.90;;;;;;4989141;28;20477;-48
2020/12/10 04:10:35;;;;;;;52.00;27.53;;;4.50;99.90;;;;;;4987984;28;20520;-48
2020/12/10 04:13:03;;;;;;;53.03;27.97;;;4.30;99.90;;;;;;4988792;28;20492;-48
2020/12/10 04:15:30;;;;;;;55.03;27.83;;;4.30;99.90;;;;;;4989122;28;20538;-48
2020/12/10 04:17:58;;;;;;;53.60;28.77;;;4.30;99.90;;;;;;4989875;28;20498;-48
2020/12/10 04:20:25;;;;;;;51.00;25.70;;;4.30;99.90;;;;;;4988284;28;21004;-48
2020/12/10 04:22:53;;;;;;;60.17;28.30;;;4.30;99.90;;;;;;4988499;28;20567;-48
2020/12/10 04:25:22;;;;;;;59.97;30.57;;;4.30;99.90;;;;;;4989406;28;20481;-48
2020/12/10 04:27:49;;;;;;;58.87;28.27;;;4.30;99.90;;;;;;4988883;28;20900;-49
2020/12/10 04:30:20;;;;;;;66.57;31.77;;;4.30;99.90;;;;;;4988795;28;20484;-48
2020/12/10 04:32:48;;;;;;;61.23;29.27;;;4.30;99.90;;;;;;4988510;28;20486;-48
2020/12/10 04:35:17;;;;;;;71.63;32.87;;;4.40;99.90;;;;;;4988916;28;20474;-48
2020/12/10 04:37:45;;;;;;;70.47;33.43;;;4.30;99.90;;;;;;4988181;28;20884;-48
2020/12/10 04:40:12;;;;;;;76.70;33.37;;;4.20;99.90;;;;;;4988688;28;20523;-48
2020/12/10 04:42:42;;;;;;;75.70;33.33;;;4.30;99.90;;;;;;4988110;28;21115;-48
2020/12/10 04:45:09;;;;;;;74.97;33.87;;;4.20;99.90;;;;;;4988448;28;20536;-48
2020/12/10 04:47:37;;;;;;;77.70;34.20;;;4.30;99.90;;;;;;4988737;28;20512;-48
2020/12/10 04:50:15;;;;;;;76.73;35.07;;;4.30;99.90;;;;;;4988404;28;20531;-50
2020/12/10 04:52:43;;;;;;;84.10;34.60;;;4.20;99.90;;;;;;4984875;28;20527;-48
2020/12/10 04:55:11;;;;;;;88.77;35.97;;;4.10;99.90;;;;;;4987028;28;20511;-48
2020/12/10 04:57:43;;;;;;;82.03;34.90;;;4.20;99.90;;;;;;4988063;28;20506;-48
2020/12/10 05:00:14;;;;;;;81.20;34.27;;;4.20;99.90;;;;;;4986169;28;20547;-48
2020/12/10 05:02:45;;;;;;;76.40;34.50;;;4.20;99.90;;;;;;4980118;28;20483;-48
2020/12/10 05:05:27;;;;;;;90.30;36.17;;;4.20;99.90;;;;;;4987902;28;20563;-48
2020/12/10 05:07:57;;;;;;;82.90;33.40;;;4.20;99.90;;;;;;4990419;28;20875;-49
2020/12/10 05:10:25;;;;;;;79.37;33.87;;;4.20;99.90;;;;;;4991122;28;21018;-49
2020/12/10 05:13:07;;;;;;;78.57;34.80;;;4.20;99.90;;;;;;4983110;28;20481;-48
2020/12/10 05:15:36;;;;;;;75.30;33.87;;;4.20;99.90;;;;;;4989177;28;20511;-48
2020/12/10 05:18:07;;;;;;;75.10;34.27;;;4.20;99.90;;;;;;4992046;28;20488;-48
2020/12/10 05:20:45;;;;;;;74.90;34.37;;;4.20;99.90;;;;;;4991493;28;21065;-48
2020/12/10 05:23:18;;;;;;;74.80;36.83;;;4.10;99.90;;;;;;4992146;28;20481;-49
2020/12/10 05:25:47;;;;;;;73.70;34.97;;;4.10;99.90;;;;;;4992783;28;20487;-48
2020/12/10 05:28:16;;;;;;;75.73;35.23;;;4.10;99.90;;;;;;4992734;28;20545;-48
2020/12/10 05:30:45;;;;;;;71.53;34.73;;;4.10;99.90;;;;;;4992055;28;20496;-48
2020/12/10 05:33:16;;;;;;;75.27;35.73;;;4.10;99.90;;;;;;4992223;28;20571;-48
2020/12/10 05:35:43;;;;;;;78.83;36.73;;;4.10;99.90;;;;;;4991692;28;20488;-48
2020/12/10 05:38:12;;;;;;;75.10;34.80;;;4.10;99.90;;;;;;4990648;28;20483;-48
2020/12/10 05:40:40;;;;;;;69.67;35.37;;;4.10;99.90;;;;;;4990507;28;20539;-48
2020/12/10 05:43:08;;;;;;;74.57;37.27;;;4.10;99.90;;;;;;4991419;28;20571;-48
2020/12/10 05:45:39;;;;;;;71.23;35.40;;;4.10;99.90;;;;;;4988999;28;21171;-48
2020/12/10 05:48:06;;;;;;;70.00;36.40;;;4.10;99.90;;;;;;4991148;28;21102;-48
2020/12/10 05:50:35;;;;;;;71.77;36.20;;;4.10;99.90;;;;;;4990225;28;20495;-48
2020/12/10 05:53:08;;;;;;;71.93;36.80;;;4.20;99.90;;;;;;4987827;28;20480;-48
2020/12/10 05:55:37;;;;;;;72.93;35.87;;;4.10;99.90;;;;;;4987112;28;20488;-48
2020/12/10 05:58:06;;;;;;;69.00;36.67;;;4.10;99.90;;;;;;4986891;28;20494;-49
2020/12/10 06:00:33;;;;;;;70.93;37.03;;;4.10;99.90;;;;;;4985845;28;20490;-48
2020/12/10 06:03:03;;;;;;;71.20;35.40;;;4.00;99.90;;;;;;4990422;28;21169;-48
2020/12/10 06:05:31;;;;;;;67.87;36.43;;;4.00;99.90;;;;;;4991006;28;20477;-48
2020/12/10 06:08:04;;;;;;;65.87;36.00;;;4.00;99.90;;;;;;4990777;28;20539;-48
2020/12/10 06:10:36;;;;;;;64.97;34.20;;;4.10;99.90;;;;;;4988933;28;20970;-48
2020/12/10 06:13:04;;;;;;;67.70;36.23;;;4.00;99.90;;;;;;4987748;28;20492;-48
2020/12/10 06:15:33;;;;;;;64.13;34.73;;;4.00;99.90;;;;;;4991027;28;20562;-48
2020/12/10 06:18:08;;;;;;;71.77;35.90;;;4.00;99.90;;;;;;4990999;28;20857;-47
2020/12/10 06:20:39;;;;;;;69.27;35.53;;;4.00;99.90;;;;;;4989818;28;21003;-50
2020/12/10 06:23:40;;;;;;;67.97;33.93;;;4.10;99.90;;;;;;4988349;28;20505;-48
2020/12/10 06:26:36;;;;;;;67.33;35.97;;;4.10;99.90;;;;;;4923016;28;20839;-49
2020/12/10 06:29:21;;;;;;;74.00;36.83;;;4.10;99.90;;;;;;4920598;28;20649;-48
2020/12/10 06:32:09;;;;;;;74.20;37.97;;;4.00;99.90;;;;;;4961281;28;20578;-49
2020/12/10 06:34:44;;;;;;;71.07;37.77;;;4.00;99.90;;;;;;4989972;28;20509;-48
2020/12/10 06:37:28;;;;;;;81.07;38.50;;;4.10;99.90;;;;;;4990878;28;22073;-48
2020/12/10 06:39:59;;;;;;;74.73;35.07;;;4.20;99.90;;;;;;4990360;28;20880;-48
2020/12/10 06:42:45;;;;;;;80.67;40.33;;;4.20;99.90;;;;;;4989942;28;20473;-51
2020/12/10 06:45:31;;;;;;;70.13;37.13;;;4.10;99.90;;;;;;4987665;28;20478;-49
2020/12/10 06:48:00;;;;;;;79.80;41.27;;;4.30;99.90;;;;;;4968532;28;20971;-49
2020/12/10 06:50:30;;;;;;;75.90;40.20;;;4.20;99.90;;;;;;4970299;28;20505;-48
2020/12/10 06:53:18;;;;;;;75.37;37.73;;;4.10;99.90;;;;;;4978493;28;20993;-48
2020/12/10 06:56:11;;;;;;;66.53;35.97;;;4.10;99.90;;;;;;4986538;28;20889;-49
2020/12/10 06:58:58;;;;;;;70.00;38.97;;;4.10;99.90;;;;;;4980761;28;20504;-49
2020/12/10 07:01:37;;;;;;;58.37;35.07;;;4.00;99.90;;;;;;4994533;28;20528;-48
2020/12/10 07:04:29;;;;;;;57.40;34.33;;;4.00;99.90;;;;;;4966887;28;20545;-49
2020/12/10 07:07:14;;;;;;;60.67;33.40;;;4.00;99.90;;;;;;4973227;28;20556;-48
2020/12/10 07:09:52;;;;;;;56.77;33.30;;;4.00;99.90;;;;;;4970658;28;20600;-48
2020/12/10 07:12:25;;;;;;;54.13;32.40;;;4.10;99.90;;;;;;4987271;28;20985;-48
2020/12/10 07:15:11;;;;;;;54.50;31.90;;;4.10;99.90;;;;;;4987140;28;20477;-49
2020/12/10 07:17:39;;;;;;;49.73;31.50;;;4.10;99.90;;;;;;4989605;28;20487;-48
2020/12/10 07:20:06;;;;;;;46.90;27.37;;;4.00;99.90;;;;;;4989673;28;20530;-49
2020/12/10 07:22:34;;;;;;;57.13;33.53;;;4.10;99.90;;;;;;4988267;28;20531;-49
2020/12/10 07:25:02;;;;;;;53.97;31.30;;;4.10;99.90;;;;;;4990311;28;21001;-51
2020/12/10 07:27:29;;;;;;;51.40;31.47;;;4.10;99.90;;;;;;4988804;28;20919;-48
2020/12/10 07:29:57;;;;;;;52.57;32.33;;;4.00;99.90;;;;;;4987902;28;20570;-50
2020/12/10 07:32:24;;;;;;;53.97;31.50;;;4.00;99.90;;;;;;4989377;28;20533;-48
2020/12/10 07:34:51;;;;;;;47.73;28.77;;;4.00;99.90;;;;;;4987212;28;20488;-50
2020/12/10 07:37:25;;;;;;;56.20;32.77;;;4.10;99.90;;;;;;4987120;28;20496;-48
2020/12/10 07:39:53;;;;;;;53.60;31.63;;;4.10;99.90;;;;;;4984921;28;20863;-49
2020/12/10 07:42:20;;;;;;;49.57;29.63;;;4.20;99.90;;;;;;4996474;28;20574;-50
2020/12/10 07:44:48;;;;;;;45.80;28.23;;;4.10;99.90;;;;;;5000021;28;20494;-48
2020/12/10 07:47:15;;;;;;;44.53;27.30;;;4.10;99.90;;;;;;4982915;28;20476;-49
2020/12/10 07:49:46;;;;;;;49.77;28.40;;;4.00;99.90;;;;;;4986718;28;21376;-49
2020/12/10 07:52:13;;;;;;;46.40;28.10;;;4.00;99.90;;;;;;4983111;28;20547;-49
2020/12/10 07:55:02;;;;;;;47.93;29.43;;;4.00;99.90;;;;;;4983977;28;20818;-48
2020/12/10 07:57:35;;;;;;;46.30;25.63;;;4.10;99.90;;;;;;4968282;28;21064;-48
2020/12/10 08:00:06;;;;;;;49.63;29.80;;;4.20;99.90;;;;;;4965653;28;20485;-49
2020/12/10 08:02:57;;;;;;;45.60;26.90;;;4.20;99.90;;;;;;4973202;28;20500;-50
2020/12/10 08:05:25;;;;;;;48.97;28.13;;;4.10;99.90;;;;;;4984303;28;20519;-48
2020/12/10 08:07:53;;;;;;;45.50;25.93;;;4.20;99.90;;;;;;4984674;28;20548;-49
2020/12/10 08:10:24;;;;;;;49.47;26.67;;;4.00;99.90;;;;;;4984824;28;20492;-48
2020/12/10 08:13:14;;;;;;;46.83;26.27;;;4.00;99.90;;;;;;4984061;28;21283;-48
2020/12/10 08:15:44;;;;;;;49.00;27.10;;;4.00;99.90;;;;;;4978606;28;20507;-49
2020/12/10 08:18:14;;;;;;;44.00;26.43;;;4.00;99.90;;;;;;4985154;28;20891;-48
2020/12/10 08:20:43;;;;;;;46.40;26.07;;;4.00;99.90;;;;;;4984162;28;20481;-48
2020/12/10 08:23:11;;;;;;;45.80;26.73;;;3.90;99.90;;;;;;4983924;28;20495;-48
2020/12/10 08:25:40;;;;;;;46.07;25.43;;;3.90;99.90;;;;;;4984123;28;20485;-49
2020/12/10 08:28:09;;;;;;;43.50;24.87;;;3.90;99.90;;;;;;4983355;28;21070;-48
2020/12/10 08:30:37;;;;;;;40.87;23.43;;;3.90;99.90;;;;;;4979681;28;20504;-48
2020/12/10 08:33:04;;;;;;;39.20;24.23;;;3.90;99.90;;;;;;4984512;28;20554;-48
2020/12/10 08:35:41;;;;;;;40.60;23.53;;;3.90;99.90;;;;;;4984317;28;20537;-48
2020/12/10 08:38:09;;;;;;;41.70;24.60;;;3.80;99.90;;;;;;4986538;28;20910;-48
2020/12/10 08:40:38;;;;;;;43.77;23.40;;;3.80;99.90;;;;;;4985874;28;20495;-48
2020/12/10 08:43:11;;;;;;;38.00;23.23;;;3.90;99.90;;;;;;4989944;28;20517;-48
2020/12/10 08:45:43;;;;;;;42.27;24.63;;;3.90;99.90;;;;;;4988087;28;20916;-48
2020/12/10 08:48:14;;;;;;;41.93;24.40;;;3.80;99.90;;;;;;4988715;28;20483;-48
2020/12/10 08:50:52;;;;;;;44.13;25.23;;;3.90;99.90;;;;;;4985755;28;20503;-49
2020/12/10 08:53:20;;;;;;;43.17;22.50;;;3.90;99.90;;;;;;4985670;28;20844;-48
2020/12/10 08:55:51;;;;;;;50.20;27.43;;;3.90;99.90;;;;;;4989051;28;20565;-48
2020/12/10 08:58:20;;;;;;;48.60;26.10;;;3.90;99.90;;;;;;4989566;28;20508;-49
2020/12/10 09:00:52;;;;;;;48.73;24.67;;;3.90;99.90;;;;;;4985618;28;20480;-48
2020/12/10 09:03:20;;;;;;;51.13;26.70;;;3.90;99.90;;;;;;4989259;28;20520;-48
2020/12/10 09:05:47;;;;;;;51.50;28.20;;;4.00;99.90;;;;;;4989251;28;20881;-48
2020/12/10 09:08:14;;;;;;;52.70;27.17;;;3.90;99.90;;;;;;4989326;28;20501;-50
2020/12/10 09:10:42;;;;;;;47.57;25.07;;;3.90;99.90;;;;;;4988031;28;20479;-49
2020/12/10 09:13:10;;;;;;;48.10;25.57;;;3.90;99.90;;;;;;4989040;28;20522;-48
2020/12/10 09:15:42;;;;;;;45.97;24.93;;;3.90;99.90;;;;;;4989044;28;20483;-48
2020/12/10 09:18:11;;;;;;;43.80;25.43;;;3.90;99.90;;;;;;4989010;28;20933;-48
2020/12/10 09:20:40;;;;;;;45.53;24.13;;;3.80;99.90;;;;;;4988293;28;20487;-49
2020/12/10 09:23:07;;;;;;;43.40;24.30;;;3.90;99.90;;;;;;4988678;28;20868;-49
2020/12/10 09:25:35;;;;;;;38.70;22.27;;;3.80;99.90;;;;;;4988699;28;20486;-49
2020/12/10 09:28:02;;;;;;;38.23;20.57;;;3.80;99.90;;;;;;4988949;28;20509;-48
2020/12/10 09:30:30;;;;;;;37.63;22.20;;;3.80;99.90;;;;;;4987878;28;20559;-48
2020/12/10 09:32:58;;;;;;;38.33;21.83;;;3.80;99.90;;;;;;4988864;28;20569;-48
2020/12/10 09:35:26;;;;;;;38.53;22.53;;;3.80;99.90;;;;;;4988632;28;20492;-48
2020/12/10 09:37:54;;;;;;;34.30;21.53;;;3.80;99.90;;;;;;4988897;28;20475;-48
2020/12/10 09:40:22;;;;;;;37.47;23.13;;;3.80;99.90;;;;;;4988574;28;20494;-48
2020/12/10 09:42:50;;;;;;;36.27;22.87;;;3.70;99.90;;;;;;4989242;28;20490;-49
2020/12/10 09:45:18;;;;;;;40.37;23.70;;;3.70;99.90;;;;;;4988762;28;20491;-48
2020/12/10 09:47:47;;;;;;;40.23;21.87;;;3.70;99.90;;;;;;4988989;28;20575;-48
2020/12/10 09:50:23;;;;;;;43.53;24.83;;;3.90;99.90;;;;;;4987835;28;20547;-48
2020/12/10 09:53:00;;;;;;;42.97;24.33;;;3.80;99.90;;;;;;4988296;28;20809;-48
2020/12/10 09:55:43;;;;;;;41.43;25.03;;;3.80;99.90;;;;;;4987941;28;20590;-49
2020/12/10 09:58:11;;;;;;;43.73;22.77;;;3.80;99.90;;;;;;4988704;28;20581;-49
2020/12/10 10:00:38;;;;;;;43.63;26.23;;;3.90;99.90;;;;;;4987242;28;20487;-49
2020/12/10 10:03:06;;;;;;;43.37;25.37;;;3.90;99.90;;;;;;4987890;28;20546;-49
2020/12/10 10:05:52;;;;;;;42.97;25.17;;;3.80;99.90;;;;;;4988245;28;21003;-48
2020/12/10 10:08:22;;;;;;;49.80;27.40;;;3.80;99.90;;;;;;4988167;28;20488;-50
2020/12/10 10:10:50;;;;;;;47.60;25.00;;;3.90;99.90;;;;;;4987659;28;20855;-48
2020/12/10 10:13:18;;;;;;;44.87;25.67;;;3.80;99.90;;;;;;4987936;28;20488;-49
2020/12/10 10:15:46;;;;;;;47.33;27.70;;;3.90;99.90;;;;;;4987307;28;20493;-49
2020/12/10 10:18:16;;;;;;;47.80;25.13;;;3.80;99.90;;;;;;4987853;28;20476;-48
2020/12/10 10:20:44;;;;;;;47.17;26.30;;;3.80;99.90;;;;;;4986769;28;20492;-48
2020/12/10 10:23:12;;;;;;;49.57;27.50;;;3.90;99.90;;;;;;4986579;28;21060;-48
2020/12/10 10:25:42;;;;;;;51.13;27.83;;;3.80;99.90;;;;;;4987508;28;20483;-48
2020/12/10 10:28:10;;;;;;;50.47;27.93;;;3.80;99.90;;;;;;4986358;28;20486;-49
2020/12/10 10:30:38;;;;;;;50.90;27.50;;;3.70;99.90;;;;;;4968211;28;20541;-48
2020/12/10 10:33:05;;;;;;;51.10;28.00;;;3.70;99.90;;;;;;4988140;28;20908;-48
2020/12/10 10:35:38;;;;;;;53.13;27.90;;;3.70;99.90;;;;;;4972853;28;20543;-48
2020/12/10 10:38:05;;;;;;;50.97;27.67;;;3.80;99.90;;;;;;4987420;28;20518;-49
2020/12/10 10:40:32;;;;;;;50.97;27.33;;;3.80;99.90;;;;;;4986270;28;20483;-48
2020/12/10 10:43:00;;;;;;;57.03;29.40;;;3.70;99.90;;;;;;4987518;28;20499;-48
2020/12/10 10:45:27;;;;;;;47.90;27.23;;;3.70;99.90;;;;;;4985755;28;20567;-50
2020/12/10 10:47:55;;;;;;;54.80;29.57;;;3.80;99.90;;;;;;4988350;28;20902;-49
2020/12/10 10:50:22;;;;;;;52.73;28.57;;;3.80;99.90;;;;;;4987803;28;20481;-51
2020/12/10 10:52:50;;;;;;;56.57;29.40;;;3.90;99.90;;;;;;4981728;28;20491;-49
2020/12/10 10:55:17;;;;;;;53.10;29.33;;;3.80;99.90;;;;;;4987367;28;20548;-48
2020/12/10 10:57:45;;;;;;;59.47;30.50;;;3.90;99.90;;;;;;4987093;28;20943;-48
2020/12/10 11:00:12;;;;;;;56.53;29.53;;;3.90;99.90;;;;;;4986964;28;20562;-49
2020/12/10 11:02:40;;;;;;;55.10;30.63;;;3.90;99.90;;;;;;4986332;28;20515;-48
2020/12/10 11:05:07;;;;;;;58.53;30.43;;;3.90;99.90;;;;;;4986027;28;20480;-48
2020/12/10 11:07:36;;;;;;;61.50;31.00;;;3.90;99.90;;;;;;4987322;28;20813;-49
2020/12/10 11:10:04;;;;;;;64.50;31.67;;;3.90;99.90;;;;;;4986578;28;20528;-51
2020/12/10 11:12:32;;;;;;;65.90;32.47;;;3.90;99.90;;;;;;4986799;28;20497;-48
2020/12/10 11:14:59;;;;;;;66.23;33.67;;;3.90;99.90;;;;;;4986518;28;20775;-51
2020/12/10 11:17:27;;;;;;;72.07;35.37;;;3.90;99.90;;;;;;4986994;28;20529;-48
2020/12/10 11:19:54;;;;;;;68.13;33.97;;;3.80;99.90;;;;;;4987099;28;20502;-48
2020/12/10 11:22:23;;;;;;;72.47;34.07;;;3.90;99.90;;;;;;4986388;28;20508;-49
2020/12/10 11:24:51;;;;;;;74.03;34.97;;;3.90;99.90;;;;;;4986035;28;20497;-48
2020/12/10 11:27:19;;;;;;;77.20;35.50;;;4.00;99.90;;;;;;4986562;28;20531;-49
2020/12/10 11:29:46;;;;;;;74.60;36.07;;;4.00;99.90;;;;;;4986395;28;20477;-48
2020/12/10 11:32:14;;;;;;;69.73;34.20;;;4.00;99.90;;;;;;4986465;28;20480;-48
2020/12/10 11:34:42;;;;;;;73.50;35.43;;;3.90;99.90;;;;;;4985962;28;20499;-48
2020/12/10 11:37:10;;;;;;;75.13;35.53;;;3.90;99.90;;;;;;4986700;28;20481;-49
2020/12/10 11:39:43;;;;;;;79.00;36.93;;;3.90;99.90;;;;;;4985498;28;20492;-48
2020/12/10 11:42:11;;;;;;;74.37;32.87;;;3.90;99.90;;;;;;4986621;28;20489;-48
2020/12/10 11:44:41;;;;;;;85.10;36.23;;;3.90;99.90;;;;;;4985566;28;20494;-49
2020/12/10 11:47:10;;;;;;;80.80;36.97;;;3.90;99.90;;;;;;4987772;28;20491;-48
2020/12/10 11:49:38;;;;;;;86.63;37.10;;;3.90;99.90;;;;;;4987552;28;20493;-49
2020/12/10 11:52:06;;;;;;;82.47;35.40;;;3.90;99.90;;;;;;4986352;28;21018;-48
2020/12/10 11:54:33;;;;;;;78.47;35.53;;;3.90;99.90;;;;;;4965355;28;20604;-48
2020/12/10 11:57:01;;;;;;;83.10;36.40;;;3.90;99.90;;;;;;4985444;28;20962;-50
2020/12/10 11:59:28;;;;;;;84.67;37.47;;;3.90;99.90;;;;;;4981995;28;20477;-48
2020/12/10 12:01:56;;;;;;;87.60;35.40;;;4.00;99.90;;;;;;4985445;28;20490;-49
2020/12/10 12:04:24;;;;;;;85.23;36.43;;;4.20;99.90;;;;;;4985298;28;20487;-48
2020/12/10 12:06:51;;;;;;;89.20;38.37;;;4.20;99.90;;;;;;4986518;28;20492;-48
2020/12/10 12:09:19;;;;;;;87.77;37.20;;;4.00;99.90;;;;;;4986154;28;20561;-48
2020/12/10 12:11:46;;;;;;;82.47;35.57;;;4.00;99.90;;;;;;4985660;28;20475;-48
2020/12/10 12:14:14;;;;;;;91.20;38.93;;;4.00;99.90;;;;;;4985314;28;20479;-48
2020/12/10 12:16:46;;;;;;;93.83;39.10;;;4.00;99.90;;;;;;4985387;28;20520;-48
2020/12/10 12:19:14;;;;;;;97.07;40.07;;;4.00;99.90;;;;;;4986152;28;20473;-48
2020/12/10 12:21:42;;;;;;;92.30;38.07;;;4.00;99.90;;;;;;4985359;28;20993;-48
2020/12/10 12:24:10;;;;;;;80.87;34.53;;;4.00;99.90;;;;;;4984887;28;20519;-48
2020/12/10 12:26:38;;;;;;;97.17;40.23;;;4.00;99.90;;;;;;4985568;28;20522;-48
2020/12/10 12:29:05;;;;;;;90.47;38.17;;;4.00;99.90;;;;;;4983190;28;20539;-48
2020/12/10 12:31:34;;;;;;;95.87;38.50;;;4.10;99.90;;;;;;4984508;28;20567;-48
2020/12/10 12:34:05;;;;;;;86.60;37.90;;;4.10;99.90;;;;;;4982899;28;20488;-48
2020/12/10 12:36:34;;;;;;;86.90;37.57;;;4.10;99.90;;;;;;4984775;28;20833;-49
2020/12/10 12:39:04;;;;;;;85.23;35.40;;;4.10;99.90;;;;;;4985632;28;20488;-50
2020/12/10 12:41:41;;;;;;;107.17;41.30;;;4.30;99.90;;;;;;4979036;28;20475;-48
2020/12/10 12:44:09;;;;;;;85.37;35.30;;;4.20;99.90;;;;;;4982172;28;20485;-48
2020/12/10 12:46:37;;;;;;;103.50;40.33;;;4.20;99.90;;;;;;4985546;28;20573;-49
2020/12/10 12:49:05;;;;;;;104.30;41.87;;;4.30;99.90;;;;;;4985731;28;21003;-49